Dimitrovgrad, Russia
Current Conditions -  °F | °C
As of 2:00 AM on Tuesday 21 Oct 2014 (Local Time) from UWLW Reporting Station
Overcast Overcast  
Wind Chill: 24°   Ceiling: 800
Heat Index: 30°   Visibility: 3mi
Dew Point: 30°   Wind: 7mph
Humidity: 100%   Direction: 130°SE
Pressure: 29.5"   Gusts: NA
Location:  54.25°N, 49.55°E
Report Text: UWLW 202300Z 13003MPS P5000 OVC008 M01/M01 Q0999 20591532 NOSIGRMK QFE743
Loading
Personal Weather Stations






























Interactive Weather Map
Tropical Storm Tracking
New forecast layout! Learn more

10-Day Weather Forecast

Advertisements
Track Severe Weather on mobile